sensor_id;sensor_type;location;lat;lon;timestamp;P1;durP1;ratioP1;P2;durP2;ratioP2
66139;SDS011;52945;51.908;8.364;2023-03-01T00:01:21;6.18;;;3.17;;
66139;SDS011;52945;51.908;8.364;2023-03-01T00:04:24;8.23;;;3.65;;
66139;SDS011;52945;51.908;8.364;2023-03-01T00:07:25;12.43;;;4.20;;
66139;SDS011;52945;51.908;8.364;2023-03-01T00:10:25;7.65;;;3.42;;
66139;SDS011;52945;51.908;8.364;2023-03-01T00:13:26;9.45;;;3.85;;
66139;SDS011;52945;51.908;8.364;2023-03-01T00:16:28;6.68;;;3.28;;
66139;SDS011;52945;51.908;8.364;2023-03-01T00:19:30;5.95;;;3.63;;
66139;SDS011;52945;51.908;8.364;2023-03-01T00:25:32;7.05;;;3.67;;
66139;SDS011;52945;51.908;8.364;2023-03-01T00:28:33;4.38;;;2.97;;
66139;SDS011;52945;51.908;8.364;2023-03-01T00:31:34;6.53;;;3.47;;
66139;SDS011;52945;51.908;8.364;2023-03-01T00:34:35;7.60;;;3.30;;
66139;SDS011;52945;51.908;8.364;2023-03-01T00:37:35;8.80;;;3.60;;
66139;SDS011;52945;51.908;8.364;2023-03-01T00:40:36;5.85;;;4.30;;
66139;SDS011;52945;51.908;8.364;2023-03-01T00:43:37;7.57;;;4.28;;
66139;SDS011;52945;51.908;8.364;2023-03-01T00:46:38;7.95;;;4.38;;
66139;SDS011;52945;51.908;8.364;2023-03-01T00:49:38;8.15;;;3.45;;
66139;SDS011;52945;51.908;8.364;2023-03-01T00:52:39;5.78;;;3.30;;
66139;SDS011;52945;51.908;8.364;2023-03-01T00:55:39;7.28;;;3.30;;
66139;SDS011;52945;51.908;8.364;2023-03-01T00:58:40;4.22;;;2.85;;
66139;SDS011;52945;51.908;8.364;2023-03-01T01:01:41;7.47;;;3.25;;
66139;SDS011;52945;51.908;8.364;2023-03-01T01:04:42;6.45;;;2.85;;
66139;SDS011;52945;51.908;8.364;2023-03-01T01:07:42;5.80;;;3.17;;
66139;SDS011;52945;51.908;8.364;2023-03-01T01:10:44;7.60;;;4.35;;
66139;SDS011;52945;51.908;8.364;2023-03-01T01:13:45;6.43;;;3.70;;
66139;SDS011;52945;51.908;8.364;2023-03-01T01:16:47;5.55;;;2.95;;
66139;SDS011;52945;51.908;8.364;2023-03-01T01:19:48;7.22;;;3.22;;
66139;SDS011;52945;51.908;8.364;2023-03-01T01:22:48;3.90;;;2.97;;
66139;SDS011;52945;51.908;8.364;2023-03-01T01:25:49;5.75;;;3.10;;
66139;SDS011;52945;51.908;8.364;2023-03-01T01:28:50;5.72;;;3.03;;
66139;SDS011;52945;51.908;8.364;2023-03-01T01:31:51;6.15;;;3.40;;
66139;SDS011;52945;51.908;8.364;2023-03-01T01:34:51;7.53;;;3.40;;
66139;SDS011;52945;51.908;8.364;2023-03-01T01:37:52;8.23;;;3.28;;
66139;SDS011;52945;51.908;8.364;2023-03-01T01:40:52;4.75;;;2.97;;
66139;SDS011;52945;51.908;8.364;2023-03-01T01:47:16;6.88;;;3.20;;
66139;SDS011;52945;51.908;8.364;2023-03-01T01:50:19;6.32;;;3.22;;
66139;SDS011;52945;51.908;8.364;2023-03-01T01:53:21;4.20;;;3.08;;
66139;SDS011;52945;51.908;8.364;2023-03-01T01:56:22;5.75;;;3.20;;
66139;SDS011;52945;51.908;8.364;2023-03-01T01:59:26;6.18;;;3.00;;
66139;SDS011;52945;51.908;8.364;2023-03-01T02:02:30;6.47;;;3.50;;
66139;SDS011;52945;51.908;8.364;2023-03-01T02:08:48;5.68;;;3.60;;
66139;SDS011;52945;51.908;8.364;2023-03-01T02:11:51;5.15;;;3.70;;
66139;SDS011;52945;51.908;8.364;2023-03-01T02:14:53;4.68;;;2.97;;
66139;SDS011;52945;51.908;8.364;2023-03-01T02:17:53;8.13;;;2.95;;
66139;SDS011;52945;51.908;8.364;2023-03-01T02:24:26;6.28;;;3.50;;
66139;SDS011;52945;51.908;8.364;2023-03-01T02:27:40;6.65;;;3.60;;
66139;SDS011;52945;51.908;8.364;2023-03-01T02:30:48;4.97;;;2.40;;
66139;SDS011;52945;51.908;8.364;2023-03-01T02:34:10;4.05;;;2.50;;
66139;SDS011;52945;51.908;8.364;2023-03-01T02:37:14;4.60;;;2.75;;
66139;SDS011;52945;51.908;8.364;2023-03-01T02:40:20;4.50;;;2.78;;
66139;SDS011;52945;51.908;8.364;2023-03-01T02:43:22;6.10;;;3.20;;
66139;SDS011;52945;51.908;8.364;2023-03-01T02:46:27;3.58;;;2.75;;
66139;SDS011;52945;51.908;8.364;2023-03-01T02:49:28;3.88;;;2.67;;
66139;SDS011;52945;51.908;8.364;2023-03-01T02:55:50;3.88;;;2.65;;
66139;SDS011;52945;51.908;8.364;2023-03-01T02:58:51;6.93;;;3.08;;
66139;SDS011;52945;51.908;8.364;2023-03-01T03:01:52;6.00;;;3.25;;
66139;SDS011;52945;51.908;8.364;2023-03-01T03:04:53;3.95;;;2.75;;
66139;SDS011;52945;51.908;8.364;2023-03-01T03:07:53;6.28;;;2.90;;
66139;SDS011;52945;51.908;8.364;2023-03-01T03:10:55;5.68;;;3.03;;
66139;SDS011;52945;51.908;8.364;2023-03-01T03:13:56;5.38;;;2.40;;
66139;SDS011;52945;51.908;8.364;2023-03-01T03:16:57;5.47;;;2.70;;
66139;SDS011;52945;51.908;8.364;2023-03-01T03:19:58;5.47;;;3.15;;
66139;SDS011;52945;51.908;8.364;2023-03-01T03:22:58;4.55;;;2.80;;
66139;SDS011;52945;51.908;8.364;2023-03-01T03:25:59;7.15;;;2.80;;
66139;SDS011;52945;51.908;8.364;2023-03-01T03:29:00;9.32;;;3.67;;
66139;SDS011;52945;51.908;8.364;2023-03-01T03:32:01;6.25;;;3.17;;
66139;SDS011;52945;51.908;8.364;2023-03-01T03:35:02;6.63;;;3.70;;
66139;SDS011;52945;51.908;8.364;2023-03-01T03:38:10;4.78;;;3.30;;
66139;SDS011;52945;51.908;8.364;2023-03-01T03:41:17;5.72;;;3.05;;
66139;SDS011;52945;51.908;8.364;2023-03-01T03:44:18;5.03;;;2.95;;
66139;SDS011;52945;51.908;8.364;2023-03-01T03:47:19;4.20;;;2.47;;
66139;SDS011;52945;51.908;8.364;2023-03-01T03:50:20;5.70;;;2.47;;
66139;SDS011;52945;51.908;8.364;2023-03-01T03:53:22;3.33;;;2.60;;
66139;SDS011;52945;51.908;8.364;2023-03-01T03:56:23;7.65;;;3.70;;
66139;SDS011;52945;51.908;8.364;2023-03-01T03:59:25;4.60;;;3.08;;
66139;SDS011;52945;51.908;8.364;2023-03-01T04:02:26;8.15;;;2.78;;
66139;SDS011;52945;51.908;8.364;2023-03-01T04:05:27;6.57;;;4.72;;
66139;SDS011;52945;51.908;8.364;2023-03-01T04:08:28;4.10;;;2.83;;
66139;SDS011;52945;51.908;8.364;2023-03-01T04:11:29;4.00;;;2.88;;
66139;SDS011;52945;51.908;8.364;2023-03-01T04:14:29;7.85;;;3.53;;
66139;SDS011;52945;51.908;8.364;2023-03-01T04:17:30;5.82;;;2.78;;
66139;SDS011;52945;51.908;8.364;2023-03-01T04:20:32;6.70;;;2.65;;
66139;SDS011;52945;51.908;8.364;2023-03-01T04:23:34;5.07;;;2.67;;
66139;SDS011;52945;51.908;8.364;2023-03-01T04:26:35;9.52;;;3.22;;
66139;SDS011;52945;51.908;8.364;2023-03-01T04:29:36;5.88;;;3.00;;
66139;SDS011;52945;51.908;8.364;2023-03-01T04:32:37;4.82;;;2.60;;
66139;SDS011;52945;51.908;8.364;2023-03-01T04:35:37;4.93;;;2.78;;
66139;SDS011;52945;51.908;8.364;2023-03-01T04:38:39;7.65;;;3.20;;
66139;SDS011;52945;51.908;8.364;2023-03-01T04:41:40;4.63;;;3.03;;
66139;SDS011;52945;51.908;8.364;2023-03-01T04:44:43;8.02;;;3.63;;
66139;SDS011;52945;51.908;8.364;2023-03-01T04:47:44;8.90;;;3.17;;
66139;SDS011;52945;51.908;8.364;2023-03-01T04:50:46;7.40;;;2.95;;
66139;SDS011;52945;51.908;8.364;2023-03-01T04:53:46;5.13;;;2.90;;
66139;SDS011;52945;51.908;8.364;2023-03-01T04:56:47;5.93;;;3.92;;
66139;SDS011;52945;51.908;8.364;2023-03-01T04:59:47;6.45;;;3.75;;
66139;SDS011;52945;51.908;8.364;2023-03-01T05:05:58;5.05;;;2.33;;
66139;SDS011;52945;51.908;8.364;2023-03-01T05:08:59;8.13;;;3.85;;
66139;SDS011;52945;51.908;8.364;2023-03-01T05:12:00;7.68;;;3.60;;
66139;SDS011;52945;51.908;8.364;2023-03-01T05:15:01;6.10;;;3.42;;
66139;SDS011;52945;51.908;8.364;2023-03-01T05:18:06;6.45;;;2.95;;
66139;SDS011;52945;51.908;8.364;2023-03-01T05:21:12;5.78;;;2.92;;
66139;SDS011;52945;51.908;8.364;2023-03-01T05:24:15;5.47;;;3.47;;
66139;SDS011;52945;51.908;8.364;2023-03-01T05:27:16;7.82;;;3.42;;
66139;SDS011;52945;51.908;8.364;2023-03-01T05:30:17;10.48;;;3.88;;
66139;SDS011;52945;51.908;8.364;2023-03-01T05:33:18;10.43;;;3.92;;
66139;SDS011;52945;51.908;8.364;2023-03-01T05:36:18;9.80;;;4.40;;
66139;SDS011;52945;51.908;8.364;2023-03-01T05:39:20;7.07;;;3.65;;
66139;SDS011;52945;51.908;8.364;2023-03-01T05:42:22;9.13;;;3.58;;
66139;SDS011;52945;51.908;8.364;2023-03-01T05:45:23;7.38;;;4.38;;
66139;SDS011;52945;51.908;8.364;2023-03-01T05:54:26;3.83;;;2.75;;
66139;SDS011;52945;51.908;8.364;2023-03-01T05:57:28;5.82;;;3.65;;
66139;SDS011;52945;51.908;8.364;2023-03-01T06:00:29;8.25;;;3.78;;
66139;SDS011;52945;51.908;8.364;2023-03-01T06:03:30;6.28;;;3.15;;
66139;SDS011;52945;51.908;8.364;2023-03-01T06:06:34;7.75;;;3.78;;
66139;SDS011;52945;51.908;8.364;2023-03-01T06:09:37;6.50;;;3.47;;
66139;SDS011;52945;51.908;8.364;2023-03-01T06:12:38;4.25;;;3.17;;
66139;SDS011;52945;51.908;8.364;2023-03-01T06:15:40;4.55;;;3.38;;
66139;SDS011;52945;51.908;8.364;2023-03-01T06:18:40;7.45;;;4.22;;
66139;SDS011;52945;51.908;8.364;2023-03-01T06:21:41;9.25;;;3.65;;
66139;SDS011;52945;51.908;8.364;2023-03-01T06:24:41;6.00;;;3.88;;
66139;SDS011;52945;51.908;8.364;2023-03-01T06:27:42;7.47;;;4.55;;
66139;SDS011;52945;51.908;8.364;2023-03-01T06:30:46;9.05;;;3.83;;
66139;SDS011;52945;51.908;8.364;2023-03-01T06:33:47;6.80;;;3.83;;
66139;SDS011;52945;51.908;8.364;2023-03-01T06:36:47;6.18;;;3.03;;
66139;SDS011;52945;51.908;8.364;2023-03-01T06:39:48;3.53;;;2.85;;
66139;SDS011;52945;51.908;8.364;2023-03-01T06:42:49;6.15;;;3.55;;
66139;SDS011;52945;51.908;8.364;2023-03-01T06:45:50;7.43;;;3.30;;
66139;SDS011;52945;51.908;8.364;2023-03-01T06:48:51;5.07;;;3.17;;
66139;SDS011;52945;51.908;8.364;2023-03-01T06:51:52;9.23;;;4.53;;
66139;SDS011;52945;51.908;8.364;2023-03-01T06:54:52;6.72;;;4.25;;
66139;SDS011;52945;51.908;8.364;2023-03-01T06:57:54;5.78;;;4.03;;
66139;SDS011;52945;51.908;8.364;2023-03-01T07:00:58;5.45;;;3.50;;
66139;SDS011;52945;51.908;8.364;2023-03-01T07:03:58;7.03;;;4.30;;
66139;SDS011;52945;51.908;8.364;2023-03-01T07:06:59;8.05;;;4.28;;
66139;SDS011;52945;51.908;8.364;2023-03-01T07:10:00;6.03;;;4.35;;
66139;SDS011;52945;51.908;8.364;2023-03-01T07:13:00;6.85;;;4.07;;
66139;SDS011;52945;51.908;8.364;2023-03-01T07:16:01;6.68;;;4.13;;
66139;SDS011;52945;51.908;8.364;2023-03-01T07:19:02;8.27;;;3.85;;
66139;SDS011;52945;51.908;8.364;2023-03-01T07:22:03;6.68;;;3.85;;
66139;SDS011;52945;51.908;8.364;2023-03-01T07:25:04;9.85;;;3.90;;
66139;SDS011;52945;51.908;8.364;2023-03-01T07:28:05;9.15;;;4.28;;
66139;SDS011;52945;51.908;8.364;2023-03-01T07:31:05;8.65;;;4.28;;
66139;SDS011;52945;51.908;8.364;2023-03-01T07:34:06;7.38;;;4.32;;
66139;SDS011;52945;51.908;8.364;2023-03-01T07:37:07;6.32;;;3.47;;
66139;SDS011;52945;51.908;8.364;2023-03-01T07:40:07;11.07;;;4.32;;
66139;SDS011;52945;51.908;8.364;2023-03-01T07:43:09;6.45;;;4.10;;
66139;SDS011;52945;51.908;8.364;2023-03-01T07:46:09;17.08;;;5.88;;
66139;SDS011;52945;51.908;8.364;2023-03-01T07:49:10;11.18;;;5.15;;
66139;SDS011;52945;51.908;8.364;2023-03-01T07:52:11;8.38;;;4.35;;
66139;SDS011;52945;51.908;8.364;2023-03-01T07:55:11;11.32;;;5.13;;
66139;SDS011;52945;51.908;8.364;2023-03-01T07:58:12;4.97;;;4.05;;
66139;SDS011;52945;51.908;8.364;2023-03-01T08:01:16;7.20;;;3.72;;
66139;SDS011;52945;51.908;8.364;2023-03-01T08:04:18;7.15;;;5.07;;
66139;SDS011;52945;51.908;8.364;2023-03-01T08:07:19;8.88;;;4.05;;
66139;SDS011;52945;51.908;8.364;2023-03-01T08:10:20;7.68;;;4.30;;
66139;SDS011;52945;51.908;8.364;2023-03-01T08:13:20;9.98;;;5.18;;
66139;SDS011;52945;51.908;8.364;2023-03-01T08:16:22;6.10;;;4.07;;
66139;SDS011;52945;51.908;8.364;2023-03-01T08:19:23;8.18;;;3.75;;
66139;SDS011;52945;51.908;8.364;2023-03-01T08:22:24;11.88;;;3.72;;
66139;SDS011;52945;51.908;8.364;2023-03-01T08:25:24;8.07;;;4.15;;
66139;SDS011;52945;51.908;8.364;2023-03-01T08:28:25;7.20;;;4.25;;
66139;SDS011;52945;51.908;8.364;2023-03-01T08:31:27;6.28;;;3.47;;
66139;SDS011;52945;51.908;8.364;2023-03-01T08:34:27;8.88;;;4.00;;
66139;SDS011;52945;51.908;8.364;2023-03-01T08:37:28;9.02;;;3.83;;
66139;SDS011;52945;51.908;8.364;2023-03-01T08:40:30;9.05;;;3.70;;
66139;SDS011;52945;51.908;8.364;2023-03-01T08:43:32;8.95;;;3.70;;
66139;SDS011;52945;51.908;8.364;2023-03-01T08:46:34;6.28;;;3.50;;
66139;SDS011;52945;51.908;8.364;2023-03-01T08:49:37;6.25;;;3.53;;
66139;SDS011;52945;51.908;8.364;2023-03-01T08:52:37;5.88;;;2.97;;
66139;SDS011;52945;51.908;8.364;2023-03-01T08:55:38;5.45;;;2.92;;
66139;SDS011;52945;51.908;8.364;2023-03-01T08:58:39;6.25;;;3.47;;
66139;SDS011;52945;51.908;8.364;2023-03-01T09:01:40;6.00;;;3.05;;
66139;SDS011;52945;51.908;8.364;2023-03-01T09:04:43;7.38;;;3.53;;
66139;SDS011;52945;51.908;8.364;2023-03-01T09:07:44;6.25;;;3.20;;
66139;SDS011;52945;51.908;8.364;2023-03-01T09:10:44;6.20;;;3.85;;
66139;SDS011;52945;51.908;8.364;2023-03-01T09:13:46;7.03;;;3.17;;
66139;SDS011;52945;51.908;8.364;2023-03-01T09:16:48;8.13;;;3.67;;
66139;SDS011;52945;51.908;8.364;2023-03-01T09:19:48;7.35;;;3.28;;
66139;SDS011;52945;51.908;8.364;2023-03-01T09:22:49;9.90;;;4.05;;
66139;SDS011;52945;51.908;8.364;2023-03-01T09:25:49;10.00;;;3.92;;
66139;SDS011;52945;51.908;8.364;2023-03-01T09:28:51;8.05;;;3.45;;
66139;SDS011;52945;51.908;8.364;2023-03-01T09:31:53;7.78;;;3.38;;
66139;SDS011;52945;51.908;8.364;2023-03-01T09:34:55;6.53;;;3.33;;
66139;SDS011;52945;51.908;8.364;2023-03-01T09:38:03;7.80;;;4.35;;
66139;SDS011;52945;51.908;8.364;2023-03-01T09:41:09;7.63;;;3.22;;
66139;SDS011;52945;51.908;8.364;2023-03-01T09:47:37;10.30;;;3.38;;
66139;SDS011;52945;51.908;8.364;2023-03-01T09:50:39;6.30;;;3.55;;
66139;SDS011;52945;51.908;8.364;2023-03-01T09:53:43;6.75;;;3.75;;
66139;SDS011;52945;51.908;8.364;2023-03-01T09:56:46;8.82;;;3.45;;
66139;SDS011;52945;51.908;8.364;2023-03-01T10:03:28;5.43;;;2.95;;
66139;SDS011;52945;51.908;8.364;2023-03-01T10:06:44;9.52;;;3.55;;
66139;SDS011;52945;51.908;8.364;2023-03-01T10:09:55;8.60;;;3.65;;
66139;SDS011;52945;51.908;8.364;2023-03-01T10:16:10;6.65;;;2.90;;
66139;SDS011;52945;51.908;8.364;2023-03-01T10:19:17;5.35;;;2.63;;
66139;SDS011;52945;51.908;8.364;2023-03-01T10:22:29;6.30;;;3.47;;
66139;SDS011;52945;51.908;8.364;2023-03-01T10:25:38;8.32;;;3.90;;
66139;SDS011;52945;51.908;8.364;2023-03-01T10:31:58;6.53;;;3.50;;
66139;SDS011;52945;51.908;8.364;2023-03-01T10:34:58;9.32;;;4.15;;
66139;SDS011;52945;51.908;8.364;2023-03-01T10:38:06;12.68;;;4.43;;
66139;SDS011;52945;51.908;8.364;2023-03-01T10:41:11;10.68;;;4.13;;
66139;SDS011;52945;51.908;8.364;2023-03-01T10:44:15;6.50;;;3.28;;
66139;SDS011;52945;51.908;8.364;2023-03-01T10:47:35;8.35;;;4.05;;
66139;SDS011;52945;51.908;8.364;2023-03-01T10:50:36;10.18;;;3.92;;
66139;SDS011;52945;51.908;8.364;2023-03-01T10:53:42;7.43;;;3.28;;
66139;SDS011;52945;51.908;8.364;2023-03-01T10:56:52;7.10;;;3.40;;
66139;SDS011;52945;51.908;8.364;2023-03-01T11:00:02;6.60;;;3.30;;
66139;SDS011;52945;51.908;8.364;2023-03-01T11:03:18;7.80;;;3.90;;
66139;SDS011;52945;51.908;8.364;2023-03-01T11:06:23;10.48;;;4.10;;
66139;SDS011;52945;51.908;8.364;2023-03-01T11:09:26;9.82;;;3.70;;
66139;SDS011;52945;51.908;8.364;2023-03-01T11:12:37;7.13;;;3.03;;
66139;SDS011;52945;51.908;8.364;2023-03-01T11:15:38;5.00;;;2.67;;
66139;SDS011;52945;51.908;8.364;2023-03-01T11:18:38;6.18;;;3.10;;
66139;SDS011;52945;51.908;8.364;2023-03-01T11:24:53;7.22;;;3.60;;
66139;SDS011;52945;51.908;8.364;2023-03-01T11:27:55;8.93;;;3.78;;
66139;SDS011;52945;51.908;8.364;2023-03-01T11:34:13;9.48;;;3.80;;
66139;SDS011;52945;51.908;8.364;2023-03-01T11:37:26;7.88;;;3.20;;
66139;SDS011;52945;51.908;8.364;2023-03-01T11:44:23;7.75;;;3.17;;
66139;SDS011;52945;51.908;8.364;2023-03-01T11:50:47;7.50;;;3.10;;
66139;SDS011;52945;51.908;8.364;2023-03-01T11:54:04;6.20;;;2.72;;
66139;SDS011;52945;51.908;8.364;2023-03-01T12:04:25;8.18;;;2.80;;
66139;SDS011;52945;51.908;8.364;2023-03-01T12:18:27;7.30;;;2.55;;
66139;SDS011;52945;51.908;8.364;2023-03-01T12:25:21;6.22;;;2.70;;
66139;SDS011;52945;51.908;8.364;2023-03-01T12:37:56;4.25;;;2.72;;
66139;SDS011;52945;51.908;8.364;2023-03-01T12:44:42;6.32;;;3.40;;
66139;SDS011;52945;51.908;8.364;2023-03-01T12:51:27;5.18;;;2.60;;
66139;SDS011;52945;51.908;8.364;2023-03-01T12:54:31;6.32;;;2.67;;
66139;SDS011;52945;51.908;8.364;2023-03-01T12:57:42;5.03;;;2.80;;
66139;SDS011;52945;51.908;8.364;2023-03-01T13:04:07;5.35;;;2.60;;
66139;SDS011;52945;51.908;8.364;2023-03-01T13:07:17;5.25;;;3.00;;
66139;SDS011;52945;51.908;8.364;2023-03-01T13:13:48;8.57;;;3.22;;
66139;SDS011;52945;51.908;8.364;2023-03-01T13:16:52;8.00;;;2.92;;
66139;SDS011;52945;51.908;8.364;2023-03-01T13:19:57;7.63;;;3.17;;
66139;SDS011;52945;51.908;8.364;2023-03-01T13:23:09;4.57;;;2.67;;
66139;SDS011;52945;51.908;8.364;2023-03-01T13:26:20;4.93;;;3.10;;
66139;SDS011;52945;51.908;8.364;2023-03-01T13:29:27;5.22;;;2.63;;
66139;SDS011;52945;51.908;8.364;2023-03-01T13:32:35;7.30;;;2.55;;
66139;SDS011;52945;51.908;8.364;2023-03-01T13:35:43;4.10;;;2.28;;
66139;SDS011;52945;51.908;8.364;2023-03-01T13:38:48;5.57;;;2.50;;
66139;SDS011;52945;51.908;8.364;2023-03-01T13:41:55;7.22;;;2.83;;
66139;SDS011;52945;51.908;8.364;2023-03-01T13:44:57;5.55;;;2.42;;
66139;SDS011;52945;51.908;8.364;2023-03-01T13:47:59;7.38;;;3.10;;
66139;SDS011;52945;51.908;8.364;2023-03-01T13:51:06;6.00;;;2.70;;
66139;SDS011;52945;51.908;8.364;2023-03-01T13:54:10;4.30;;;2.33;;
66139;SDS011;52945;51.908;8.364;2023-03-01T13:57:12;4.47;;;2.42;;
66139;SDS011;52945;51.908;8.364;2023-03-01T14:00:31;4.85;;;1.95;;
66139;SDS011;52945;51.908;8.364;2023-03-01T14:03:42;4.18;;;2.00;;
66139;SDS011;52945;51.908;8.364;2023-03-01T14:06:43;4.03;;;2.00;;
66139;SDS011;52945;51.908;8.364;2023-03-01T14:09:44;5.35;;;2.42;;
66139;SDS011;52945;51.908;8.364;2023-03-01T14:12:52;6.75;;;2.72;;
66139;SDS011;52945;51.908;8.364;2023-03-01T14:19:40;5.55;;;2.83;;
66139;SDS011;52945;51.908;8.364;2023-03-01T14:22:43;5.25;;;2.70;;
66139;SDS011;52945;51.908;8.364;2023-03-01T14:25:46;4.60;;;2.00;;
66139;SDS011;52945;51.908;8.364;2023-03-01T14:28:54;10.20;;;4.45;;
66139;SDS011;52945;51.908;8.364;2023-03-01T14:32:01;7.88;;;2.90;;
66139;SDS011;52945;51.908;8.364;2023-03-01T14:35:23;9.55;;;3.47;;
66139;SDS011;52945;51.908;8.364;2023-03-01T14:41:39;7.85;;;2.80;;
66139;SDS011;52945;51.908;8.364;2023-03-01T14:44:44;4.60;;;2.40;;
66139;SDS011;52945;51.908;8.364;2023-03-01T14:47:48;10.20;;;3.33;;
66139;SDS011;52945;51.908;8.364;2023-03-01T14:50:49;6.88;;;2.53;;
66139;SDS011;52945;51.908;8.364;2023-03-01T14:53:50;6.15;;;3.05;;
66139;SDS011;52945;51.908;8.364;2023-03-01T14:56:52;5.72;;;2.40;;
66139;SDS011;52945;51.908;8.364;2023-03-01T15:00:00;5.40;;;2.60;;
66139;SDS011;52945;51.908;8.364;2023-03-01T15:03:19;5.72;;;2.10;;
66139;SDS011;52945;51.908;8.364;2023-03-01T15:06:25;4.80;;;2.50;;
66139;SDS011;52945;51.908;8.364;2023-03-01T15:09:26;4.88;;;2.28;;
66139;SDS011;52945;51.908;8.364;2023-03-01T15:19:06;3.90;;;2.33;;
66139;SDS011;52945;51.908;8.364;2023-03-01T15:22:12;3.20;;;2.30;;
66139;SDS011;52945;51.908;8.364;2023-03-01T15:25:23;4.07;;;2.38;;
66139;SDS011;52945;51.908;8.364;2023-03-01T15:28:30;4.45;;;2.35;;
66139;SDS011;52945;51.908;8.364;2023-03-01T15:31:37;5.75;;;2.67;;
66139;SDS011;52945;51.908;8.364;2023-03-01T15:34:38;5.38;;;2.40;;
66139;SDS011;52945;51.908;8.364;2023-03-01T15:37:46;5.07;;;2.35;;
66139;SDS011;52945;51.908;8.364;2023-03-01T15:40:49;5.78;;;2.63;;
66139;SDS011;52945;51.908;8.364;2023-03-01T15:43:50;9.43;;;4.15;;
66139;SDS011;52945;51.908;8.364;2023-03-01T15:46:54;9.60;;;3.78;;
66139;SDS011;52945;51.908;8.364;2023-03-01T15:49:55;8.05;;;3.33;;
66139;SDS011;52945;51.908;8.364;2023-03-01T15:52:57;4.20;;;2.60;;
66139;SDS011;52945;51.908;8.364;2023-03-01T15:55:59;5.40;;;1.98;;
66139;SDS011;52945;51.908;8.364;2023-03-01T15:59:00;3.83;;;1.90;;
66139;SDS011;52945;51.908;8.364;2023-03-01T16:02:07;6.70;;;2.60;;
66139;SDS011;52945;51.908;8.364;2023-03-01T16:05:19;4.65;;;2.00;;
66139;SDS011;52945;51.908;8.364;2023-03-01T16:08:25;4.97;;;2.05;;
66139;SDS011;52945;51.908;8.364;2023-03-01T16:11:26;5.88;;;2.42;;
66139;SDS011;52945;51.908;8.364;2023-03-01T16:14:27;4.93;;;2.30;;
66139;SDS011;52945;51.908;8.364;2023-03-01T16:17:27;4.20;;;2.55;;
66139;SDS011;52945;51.908;8.364;2023-03-01T16:20:28;4.68;;;1.98;;
66139;SDS011;52945;51.908;8.364;2023-03-01T16:26:30;3.75;;;2.00;;
66139;SDS011;52945;51.908;8.364;2023-03-01T16:29:30;6.40;;;2.53;;
66139;SDS011;52945;51.908;8.364;2023-03-01T16:35:32;3.08;;;2.00;;
66139;SDS011;52945;51.908;8.364;2023-03-01T16:38:33;6.32;;;2.17;;
66139;SDS011;52945;51.908;8.364;2023-03-01T16:41:34;3.75;;;2.22;;
66139;SDS011;52945;51.908;8.364;2023-03-01T16:44:35;6.53;;;3.10;;
66139;SDS011;52945;51.908;8.364;2023-03-01T16:47:35;7.45;;;2.88;;
66139;SDS011;52945;51.908;8.364;2023-03-01T16:50:36;8.15;;;3.05;;
66139;SDS011;52945;51.908;8.364;2023-03-01T16:53:37;9.00;;;3.60;;
66139;SDS011;52945;51.908;8.364;2023-03-01T16:56:38;7.82;;;2.90;;
66139;SDS011;52945;51.908;8.364;2023-03-01T16:59:39;6.68;;;2.58;;
66139;SDS011;52945;51.908;8.364;2023-03-01T17:02:40;4.20;;;2.33;;
66139;SDS011;52945;51.908;8.364;2023-03-01T17:05:41;5.43;;;2.80;;
66139;SDS011;52945;51.908;8.364;2023-03-01T17:08:42;4.47;;;2.20;;
66139;SDS011;52945;51.908;8.364;2023-03-01T17:12:11;5.63;;;3.00;;
66139;SDS011;52945;51.908;8.364;2023-03-01T17:15:12;8.38;;;2.90;;
66139;SDS011;52945;51.908;8.364;2023-03-01T17:18:13;8.25;;;3.17;;
66139;SDS011;52945;51.908;8.364;2023-03-01T17:21:14;5.55;;;2.80;;
66139;SDS011;52945;51.908;8.364;2023-03-01T17:24:14;7.10;;;2.90;;
66139;SDS011;52945;51.908;8.364;2023-03-01T17:27:15;5.45;;;2.75;;
66139;SDS011;52945;51.908;8.364;2023-03-01T17:30:16;5.50;;;2.90;;
66139;SDS011;52945;51.908;8.364;2023-03-01T17:33:17;8.15;;;3.08;;
66139;SDS011;52945;51.908;8.364;2023-03-01T17:36:19;11.35;;;4.38;;
66139;SDS011;52945;51.908;8.364;2023-03-01T17:39:19;10.98;;;4.82;;
66139;SDS011;52945;51.908;8.364;2023-03-01T17:42:24;10.02;;;4.25;;
66139;SDS011;52945;51.908;8.364;2023-03-01T17:45:25;9.90;;;4.13;;
66139;SDS011;52945;51.908;8.364;2023-03-01T17:48:25;7.70;;;3.83;;
66139;SDS011;52945;51.908;8.364;2023-03-01T17:51:26;5.18;;;3.03;;
66139;SDS011;52945;51.908;8.364;2023-03-01T17:54:27;6.85;;;3.03;;
66139;SDS011;52945;51.908;8.364;2023-03-01T17:57:27;8.00;;;3.25;;
66139;SDS011;52945;51.908;8.364;2023-03-01T18:00:28;7.57;;;3.35;;
66139;SDS011;52945;51.908;8.364;2023-03-01T18:03:29;6.35;;;3.30;;
66139;SDS011;52945;51.908;8.364;2023-03-01T18:06:30;6.70;;;3.05;;
66139;SDS011;52945;51.908;8.364;2023-03-01T18:09:30;10.43;;;4.68;;
66139;SDS011;52945;51.908;8.364;2023-03-01T18:12:31;11.10;;;5.40;;
66139;SDS011;52945;51.908;8.364;2023-03-01T18:15:32;13.82;;;5.90;;
66139;SDS011;52945;51.908;8.364;2023-03-01T18:18:33;14.07;;;6.40;;
66139;SDS011;52945;51.908;8.364;2023-03-01T18:21:34;14.35;;;5.45;;
66139;SDS011;52945;51.908;8.364;2023-03-01T18:24:38;14.50;;;4.65;;
66139;SDS011;52945;51.908;8.364;2023-03-01T18:27:39;14.70;;;5.88;;
66139;SDS011;52945;51.908;8.364;2023-03-01T18:30:39;14.63;;;6.50;;
66139;SDS011;52945;51.908;8.364;2023-03-01T18:33:40;10.77;;;5.15;;
66139;SDS011;52945;51.908;8.364;2023-03-01T18:36:41;11.68;;;4.55;;
66139;SDS011;52945;51.908;8.364;2023-03-01T18:39:41;13.90;;;5.60;;
66139;SDS011;52945;51.908;8.364;2023-03-01T18:42:42;14.18;;;5.55;;
66139;SDS011;52945;51.908;8.364;2023-03-01T18:45:42;15.00;;;5.88;;
66139;SDS011;52945;51.908;8.364;2023-03-01T18:48:44;23.90;;;7.93;;
66139;SDS011;52945;51.908;8.364;2023-03-01T18:51:45;27.30;;;8.40;;
66139;SDS011;52945;51.908;8.364;2023-03-01T18:54:46;25.25;;;7.53;;
66139;SDS011;52945;51.908;8.364;2023-03-01T18:57:46;17.23;;;6.63;;
66139;SDS011;52945;51.908;8.364;2023-03-01T19:00:47;23.50;;;7.13;;
66139;SDS011;52945;51.908;8.364;2023-03-01T19:03:48;19.33;;;6.00;;
66139;SDS011;52945;51.908;8.364;2023-03-01T19:06:48;8.38;;;4.25;;
66139;SDS011;52945;51.908;8.364;2023-03-01T19:09:49;12.07;;;4.38;;
66139;SDS011;52945;51.908;8.364;2023-03-01T19:12:50;8.43;;;3.80;;
66139;SDS011;52945;51.908;8.364;2023-03-01T19:15:51;8.60;;;4.03;;
66139;SDS011;52945;51.908;8.364;2023-03-01T19:19:01;7.72;;;4.13;;
66139;SDS011;52945;51.908;8.364;2023-03-01T19:22:03;7.47;;;3.67;;
66139;SDS011;52945;51.908;8.364;2023-03-01T19:25:05;8.73;;;3.88;;
66139;SDS011;52945;51.908;8.364;2023-03-01T19:28:06;8.00;;;3.92;;
66139;SDS011;52945;51.908;8.364;2023-03-01T19:31:07;5.05;;;3.15;;
66139;SDS011;52945;51.908;8.364;2023-03-01T19:34:11;7.57;;;3.30;;
66139;SDS011;52945;51.908;8.364;2023-03-01T19:37:11;7.55;;;3.60;;
66139;SDS011;52945;51.908;8.364;2023-03-01T19:40:24;6.47;;;3.53;;
66139;SDS011;52945;51.908;8.364;2023-03-01T19:47:24;7.05;;;3.42;;
66139;SDS011;52945;51.908;8.364;2023-03-01T19:50:25;7.47;;;3.15;;
66139;SDS011;52945;51.908;8.364;2023-03-01T19:53:26;7.15;;;3.58;;
66139;SDS011;52945;51.908;8.364;2023-03-01T19:56:26;7.75;;;3.80;;
66139;SDS011;52945;51.908;8.364;2023-03-01T19:59:27;8.23;;;3.58;;
66139;SDS011;52945;51.908;8.364;2023-03-01T20:02:28;5.00;;;2.70;;
66139;SDS011;52945;51.908;8.364;2023-03-01T20:05:31;4.90;;;3.17;;
66139;SDS011;52945;51.908;8.364;2023-03-01T20:08:36;9.43;;;3.30;;
66139;SDS011;52945;51.908;8.364;2023-03-01T20:11:36;7.25;;;3.60;;
66139;SDS011;52945;51.908;8.364;2023-03-01T20:14:37;4.72;;;3.33;;
66139;SDS011;52945;51.908;8.364;2023-03-01T20:17:38;4.78;;;3.10;;
66139;SDS011;52945;51.908;8.364;2023-03-01T20:20:39;7.68;;;3.50;;